Time;durP1;ratioP1;P1;durP2;ratioP2;P2;SDS_P1;SDS_P2;PMS_P1;PMS_P2;Temp;Humidity;BMP_temperature;BMP_pressure;BME280_temperature;BME280_humidity;BME280_pressure;Samples;Min_cycle;Max_cycle;Signal;HPM_P1;HPM_P2
2021/11/30 00:01:44;;;;;;;12.60;7.63;;;22.30;44.00;;;;;;6128799;28;86924;-69
2021/11/30 00:04:45;;;;;;;13.73;8.15;;;22.30;44.40;;;;;;6134514;28;80163;-69
2021/11/30 00:07:51;;;;;;;11.80;7.50;;;22.20;44.00;;;;;;6134688;28;80555;-69
2021/11/30 00:10:54;;;;;;;14.45;8.43;;;22.20;44.30;;;;;;6122120;28;80248;-69
2021/11/30 00:13:54;;;;;;;14.68;7.88;;;22.20;45.30;;;;;;6120690;28;81778;-70
2021/11/30 00:16:56;;;;;;;12.55;7.70;;;22.20;44.00;;;;;;6127828;28;81452;-69
2021/11/30 00:19:57;;;;;;;11.07;7.03;;;22.30;44.20;;;;;;6131266;28;80437;-70
2021/11/30 00:22:57;;;;;;;13.07;7.68;;;22.20;44.30;;;;;;6123809;28;81693;-69
2021/11/30 00:25:58;;;;;;;15.02;7.93;;;22.20;44.70;;;;;;6128829;28;80550;-70
2021/11/30 00:28:58;;;;;;;12.80;7.65;;;22.20;44.40;;;;;;6130581;28;81877;-70
2021/11/30 00:31:59;;;;;;;11.93;7.30;;;22.20;43.80;;;;;;6135077;28;80899;-69
2021/11/30 00:34:59;;;;;;;13.45;7.53;;;22.20;44.30;;;;;;6134605;28;80343;-70
2021/11/30 00:38:00;;;;;;;14.10;7.63;;;22.20;44.00;;;;;;6134246;28;80781;-69
2021/11/30 00:41:00;;;;;;;15.77;7.95;;;22.20;44.10;;;;;;6133430;28;82345;-69
2021/11/30 00:44:01;;;;;;;13.73;7.50;;;22.20;44.10;;;;;;6133715;28;80499;-69
2021/11/30 00:47:02;;;;;;;13.13;7.28;;;22.20;43.70;;;;;;6121972;28;80803;-69
2021/11/30 00:50:02;;;;;;;12.48;7.18;;;22.20;43.80;;;;;;6134575;28;81746;-68
2021/11/30 00:53:03;;;;;;;11.55;7.18;;;22.20;43.50;;;;;;6133967;28;81462;-69
2021/11/30 00:56:04;;;;;;;12.93;7.30;;;22.20;43.40;;;;;;6132895;28;80508;-67
2021/11/30 00:59:04;;;;;;;11.02;6.70;;;22.20;43.20;;;;;;6133033;28;81107;-69
2021/11/30 01:02:05;;;;;;;12.18;7.05;;;22.20;44.00;;;;;;6134498;28;80517;-69
2021/11/30 01:05:05;;;;;;;11.60;6.32;;;22.20;43.90;;;;;;6124468;28;80691;-69
2021/11/30 01:08:06;;;;;;;10.02;6.00;;;22.20;43.90;;;;;;6132429;28;80698;-70
2021/11/30 01:11:06;;;;;;;10.93;6.68;;;22.20;43.90;;;;;;6132453;28;81536;-71
2021/11/30 01:14:07;;;;;;;11.63;6.90;;;22.20;43.90;;;;;;6143033;28;81471;-71
2021/11/30 01:17:07;;;;;;;11.88;6.60;;;22.20;43.70;;;;;;6127119;28;80582;-70
2021/11/30 01:20:08;;;;;;;11.60;6.80;;;22.20;43.50;;;;;;6129214;28;81257;-69
2021/11/30 01:23:08;;;;;;;9.93;6.50;;;22.10;43.70;;;;;;6131635;28;81026;-69
2021/11/30 01:26:09;;;;;;;13.27;6.32;;;22.20;43.40;;;;;;6134887;28;80392;-69
2021/11/30 01:29:09;;;;;;;10.98;6.22;;;22.10;43.30;;;;;;6129920;28;80077;-69
2021/11/30 01:32:10;;;;;;;11.95;6.68;;;22.10;43.60;;;;;;6125875;28;83223;-68
2021/11/30 01:35:10;;;;;;;10.43;6.32;;;22.10;43.60;;;;;;6133348;28;80150;-69
2021/11/30 01:38:11;;;;;;;11.40;6.00;;;22.10;44.00;;;;;;6130851;28;80525;-68
2021/11/30 01:41:13;;;;;;;12.23;6.35;;;22.20;44.10;;;;;;6131541;28;80301;-69
2021/11/30 01:45:20;;;;;;;12.48;6.60;;;22.10;43.50;;;;;;6122161;28;80569;-69
2021/11/30 01:49:08;;;;;;;11.65;6.60;;;22.10;43.60;;;;;;6137917;28;84086;-68
2021/11/30 01:51:19;;;;;;;10.70;6.00;;;22.10;43.40;;;;;;6135109;28;80496;-69
2021/11/30 01:54:19;;;;;;;9.18;6.10;;;22.10;42.70;;;;;;6134952;28;80579;-69
2021/11/30 01:57:20;;;;;;;16.65;6.90;;;22.10;43.20;;;;;;6137131;28;82082;-69
2021/11/30 02:00:21;;;;;;;9.60;5.90;;;22.10;43.40;;;;;;6135698;28;82628;-69
2021/11/30 02:03:21;;;;;;;9.77;5.65;;;22.10;43.20;;;;;;6136810;28;82043;-69
2021/11/30 02:06:22;;;;;;;10.63;6.53;;;22.10;43.40;;;;;;6136103;28;81154;-69
2021/11/30 02:09:22;;;;;;;10.15;6.43;;;22.10;43.70;;;;;;6137918;28;80619;-70
2021/11/30 02:12:23;;;;;;;10.93;6.45;;;22.10;43.40;;;;;;6127288;28;80993;-69
2021/11/30 02:15:26;;;;;;;12.15;6.72;;;22.10;43.60;;;;;;6133939;28;81393;-70
2021/11/30 02:18:26;;;;;;;10.68;6.25;;;22.10;43.80;;;;;;6127834;28;80550;-69
2021/11/30 02:21:28;;;;;;;9.45;5.75;;;22.10;43.60;;;;;;6136528;28;80660;-68
2021/11/30 02:24:29;;;;;;;8.50;6.28;;;22.10;43.20;;;;;;6137083;28;80439;-68
2021/11/30 02:27:29;;;;;;;10.80;6.13;;;22.10;43.30;;;;;;6133407;28;81420;-69
2021/11/30 02:30:30;;;;;;;12.00;6.32;;;22.10;43.20;;;;;;6135509;28;80486;-69
2021/11/30 02:33:30;;;;;;;9.93;6.20;;;22.10;43.20;;;;;;6136562;28;81004;-68
2021/11/30 02:36:36;;;;;;;8.90;5.85;;;22.10;43.20;;;;;;6136472;28;81012;-69
2021/11/30 02:39:37;;;;;;;10.93;6.35;;;22.10;43.50;;;;;;6136513;28;81591;-68
2021/11/30 02:42:37;;;;;;;10.60;6.18;;;22.10;43.60;;;;;;6137817;28;80630;-68
2021/11/30 02:45:38;;;;;;;9.55;5.70;;;22.10;42.80;;;;;;6135346;28;80645;-68
2021/11/30 02:48:39;;;;;;;10.93;5.93;;;22.10;42.80;;;;;;6129355;28;80334;-68
2021/11/30 02:51:41;;;;;;;10.13;5.63;;;22.10;43.10;;;;;;6137218;28;80497;-69
2021/11/30 02:54:41;;;;;;;10.07;6.15;;;22.10;43.50;;;;;;6134631;28;81659;-69
2021/11/30 02:57:42;;;;;;;11.38;6.15;;;22.10;43.50;;;;;;6130492;28;80687;-69
2021/11/30 03:00:42;;;;;;;8.02;5.53;;;22.10;43.40;;;;;;6137785;28;81100;-70
2021/11/30 03:03:43;;;;;;;10.18;5.50;;;22.10;43.00;;;;;;6131672;28;83209;-70
2021/11/30 03:06:43;;;;;;;9.88;5.47;;;22.10;43.30;;;;;;6137655;28;80352;-69
2021/11/30 03:09:44;;;;;;;10.27;6.15;;;22.10;42.70;;;;;;6135687;28;80552;-70
2021/11/30 03:12:44;;;;;;;11.18;6.38;;;22.10;41.70;;;;;;6133096;28;81276;-69
2021/11/30 03:15:45;;;;;;;11.55;6.60;;;22.10;41.30;;;;;;6135285;28;80634;-70
2021/11/30 03:18:45;;;;;;;8.15;5.45;;;22.10;41.10;;;;;;6132435;28;81319;-71
2021/11/30 03:21:49;;;;;;;8.75;5.90;;;22.20;41.00;;;;;;6131777;28;80093;-69
2021/11/30 03:24:49;;;;;;;10.43;5.75;;;22.20;41.10;;;;;;6136051;28;80490;-69
2021/11/30 03:27:50;;;;;;;8.45;5.47;;;22.20;41.10;;;;;;6149984;28;80879;-69
2021/11/30 03:30:57;;;;;;;9.48;5.40;;;22.30;41.30;;;;;;6134794;28;80413;-69
2021/11/30 03:34:01;;;;;;;8.07;5.25;;;22.30;41.20;;;;;;6135194;28;80622;-68
2021/11/30 03:37:01;;;;;;;8.40;5.35;;;22.30;41.30;;;;;;6134691;28;80412;-69
2021/11/30 03:40:02;;;;;;;7.03;4.85;;;22.40;41.30;;;;;;6127368;28;80696;-69
2021/11/30 03:43:03;;;;;;;7.10;4.68;;;22.40;41.10;;;;;;6133036;28;81714;-69
2021/11/30 03:46:03;;;;;;;7.75;4.80;;;22.40;41.20;;;;;;6134799;28;81390;-68
2021/11/30 03:49:04;;;;;;;7.32;5.03;;;22.40;41.20;;;;;;6136045;28;80419;-68
2021/11/30 03:52:04;;;;;;;7.78;4.75;;;22.50;41.30;;;;;;6125549;28;80341;-68
2021/11/30 03:55:05;;;;;;;8.07;4.90;;;22.50;41.50;;;;;;6130938;28;80562;-68
2021/11/30 03:58:06;;;;;;;6.82;4.72;;;22.50;41.50;;;;;;6136602;28;81444;-69
2021/11/30 04:01:06;;;;;;;6.88;4.65;;;22.50;41.50;;;;;;6132969;28;80365;-69
2021/11/30 04:07:39;;;;;;;7.30;4.72;;;22.60;41.50;;;;;;6136177;28;82358;-68
2021/11/30 04:10:40;;;;;;;9.00;5.00;;;22.60;41.60;;;;;;6135266;28;80822;-68
2021/11/30 04:13:40;;;;;;;7.32;4.90;;;22.60;41.50;;;;;;6133888;28;81943;-68
2021/11/30 04:16:41;;;;;;;6.05;4.43;;;22.60;41.70;;;;;;6132713;28;81639;-68
2021/11/30 04:19:41;;;;;;;7.28;4.20;;;22.60;41.70;;;;;;6133687;28;80258;-68
2021/11/30 04:22:42;;;;;;;6.50;4.45;;;22.60;41.70;;;;;;6146897;28;81584;-68
2021/11/30 04:25:42;;;;;;;6.38;4.63;;;22.60;41.90;;;;;;6130898;28;81317;-69
2021/11/30 04:28:44;;;;;;;5.85;4.45;;;22.60;41.80;;;;;;6134580;28;80670;-69
2021/11/30 04:31:45;;;;;;;6.43;4.60;;;22.70;41.90;;;;;;6133538;28;80853;-68
2021/11/30 04:34:45;;;;;;;7.75;4.43;;;22.70;41.90;;;;;;6134501;28;81021;-68
2021/11/30 04:37:46;;;;;;;5.88;4.28;;;22.70;41.70;;;;;;6130826;28;81993;-68
2021/11/30 04:40:46;;;;;;;6.95;4.50;;;22.70;41.50;;;;;;6135064;28;80016;-68
2021/11/30 04:43:47;;;;;;;6.30;4.05;;;22.70;41.30;;;;;;6129231;28;80887;-68
2021/11/30 04:46:55;;;;;;;6.95;4.15;;;22.70;41.20;;;;;;6134668;28;81031;-67
2021/11/30 04:49:59;;;;;;;9.20;5.00;;;22.70;41.10;;;;;;6124617;28;81169;-66
2021/11/30 04:53:00;;;;;;;6.35;4.20;;;22.80;40.90;;;;;;6132335;28;80346;-66
2021/11/30 04:56:01;;;;;;;6.32;4.15;;;22.70;41.00;;;;;;6132204;28;82179;-67
2021/11/30 04:59:02;;;;;;;5.80;4.00;;;22.70;40.90;;;;;;6127477;28;87550;-67
2021/11/30 05:02:02;;;;;;;5.18;4.40;;;22.70;40.80;;;;;;6132158;28;80785;-67
2021/11/30 05:05:03;;;;;;;5.25;3.70;;;22.70;40.70;;;;;;6132932;28;82011;-67
2021/11/30 05:08:04;;;;;;;7.43;4.80;;;22.80;40.50;;;;;;6133671;28;81161;-67
2021/11/30 05:11:04;;;;;;;5.47;4.03;;;22.80;40.40;;;;;;6133932;28;80583;-68
2021/11/30 05:14:05;;;;;;;6.97;4.38;;;22.80;40.30;;;;;;6133454;28;80391;-67
2021/11/30 05:17:05;;;;;;;6.25;4.13;;;22.80;40.30;;;;;;6148463;28;81254;-67
2021/11/30 05:20:06;;;;;;;5.88;4.10;;;22.80;40.20;;;;;;6126262;28;80841;-67
2021/11/30 05:23:06;;;;;;;6.63;4.05;;;22.80;40.00;;;;;;6135300;28;80611;-67
2021/11/30 05:26:08;;;;;;;7.40;4.45;;;22.80;39.90;;;;;;6138734;28;80749;-67
2021/11/30 05:29:08;;;;;;;6.65;3.75;;;22.80;39.70;;;;;;6133909;28;80298;-66
2021/11/30 05:32:09;;;;;;;6.13;4.28;;;22.80;39.70;;;;;;6138025;28;80530;-67
2021/11/30 05:35:09;;;;;;;5.30;3.78;;;22.80;39.80;;;;;;6133353;28;82253;-67
2021/11/30 05:38:10;;;;;;;6.53;3.90;;;22.80;39.60;;;;;;6131832;28;80017;-69
2021/11/30 05:41:10;;;;;;;5.43;3.90;;;22.80;39.70;;;;;;6137218;28;81428;-73
2021/11/30 05:44:11;;;;;;;5.07;3.97;;;22.80;39.40;;;;;;6137347;28;80596;-71
2021/11/30 05:47:11;;;;;;;5.60;3.17;;;22.80;40.80;;;;;;6130997;28;81519;-74
2021/11/30 05:50:12;;;;;;;5.30;2.65;;;22.80;41.30;;;;;;6136597;28;80625;-70
2021/11/30 05:53:12;;;;;;;5.15;2.83;;;22.80;42.30;;;;;;6129452;28;81097;-71
2021/11/30 05:56:13;;;;;;;3.83;2.58;;;22.90;42.70;;;;;;6135381;28;80822;-71
2021/11/30 05:59:15;;;;;;;3.65;2.97;;;22.90;42.80;;;;;;6134970;28;83061;-71
2021/11/30 06:02:16;;;;;;;3.92;3.08;;;22.90;43.10;;;;;;6133818;28;80536;-73
2021/11/30 06:05:17;;;;;;;3.85;2.97;;;22.80;43.20;;;;;;6134117;28;80535;-73
2021/11/30 06:08:17;;;;;;;3.55;2.33;;;22.90;43.40;;;;;;6119923;28;88664;-71
2021/11/30 06:11:18;;;;;;;32.60;14.60;;;22.80;43.20;;;;;;6141177;28;80513;-70
2021/11/30 06:14:18;;;;;;;140.07;62.83;;;22.90;43.90;;;;;;6152399;28;82811;-71
2021/11/30 06:17:19;;;;;;;180.88;84.95;;;22.90;44.20;;;;;;6140087;28;83563;-72
2021/11/30 06:20:21;;;;;;;142.02;67.28;;;22.80;44.80;;;;;;6144514;28;83082;-71
2021/11/30 06:23:21;;;;;;;119.85;57.70;;;22.90;44.90;;;;;;6124215;28;83225;-71
2021/11/30 06:26:22;;;;;;;107.15;51.08;;;22.90;44.60;;;;;;6134824;28;82876;-69
2021/11/30 06:29:22;;;;;;;134.60;63.75;;;22.90;44.50;;;;;;6129995;28;83460;-68
2021/11/30 06:32:23;;;;;;;287.88;135.00;;;22.90;44.60;;;;;;6131912;28;83516;-69
2021/11/30 06:35:23;;;;;;;332.50;152.63;;;22.90;44.80;;;;;;6120681;28;85530;-69
2021/11/30 06:38:24;;;;;;;290.52;131.82;;;22.80;45.00;;;;;;6128591;28;86585;-69
2021/11/30 06:41:24;;;;;;;224.30;103.68;;;22.80;45.90;;;;;;6131084;28;85916;-69
2021/11/30 06:44:25;;;;;;;190.43;89.00;;;22.80;46.10;;;;;;6122154;28;86285;-69
2021/11/30 06:47:25;;;;;;;161.55;76.82;;;22.70;46.10;;;;;;6131866;28;85416;-70
2021/11/30 06:50:26;;;;;;;145.65;66.40;;;22.70;46.30;;;;;;6127648;28;82972;-70
2021/11/30 06:53:33;;;;;;;117.75;56.58;;;22.70;46.20;;;;;;6133896;28;83824;-73
2021/11/30 06:56:34;;;;;;;101.07;48.13;;;22.70;46.00;;;;;;6131871;28;83491;-72
2021/11/30 06:59:34;;;;;;;96.25;46.15;;;22.80;46.20;;;;;;6128993;28;83079;-74
2021/11/30 07:02:36;;;;;;;87.30;39.78;;;22.70;45.80;;;;;;6132000;28;83196;-74
2021/11/30 07:05:38;;;;;;;78.20;37.30;;;22.70;46.70;;;;;;6118592;28;82808;-75
2021/11/30 07:08:52;;;;;;;74.40;34.08;;;22.70;46.60;;;;;;6132950;28;83023;-76
2021/11/30 07:15:02;;;;;;;53.28;24.25;;;22.70;47.20;;;;;;6131708;28;87152;-74
2021/11/30 07:18:03;;;;;;;47.42;23.02;;;22.70;47.20;;;;;;6133358;28;83096;-69
2021/11/30 07:21:03;;;;;;;42.75;21.15;;;22.70;47.00;;;;;;6136922;28;83738;-72
2021/11/30 07:24:05;;;;;;;37.25;18.73;;;22.70;47.40;;;;;;6134152;28;83675;-73
2021/11/30 07:27:05;;;;;;;35.38;17.58;;;22.70;47.20;;;;;;6134005;28;83890;-71
2021/11/30 07:30:06;;;;;;;37.67;16.63;;;22.70;47.20;;;;;;6124951;28;83050;-73
2021/11/30 07:33:06;;;;;;;32.15;15.10;;;22.70;47.50;;;;;;6133577;28;83402;-74
2021/11/30 07:36:09;;;;;;;27.13;14.68;;;22.70;47.60;;;;;;6131141;28;82960;-70
2021/11/30 07:39:09;;;;;;;26.92;12.85;;;22.70;47.10;;;;;;6129579;28;83433;-71
2021/11/30 07:42:10;;;;;;;24.80;11.15;;;22.60;47.40;;;;;;6127567;28;83680;-74
2021/11/30 07:45:10;;;;;;;23.73;11.38;;;22.60;47.20;;;;;;6131044;28;83644;-73
2021/11/30 07:48:11;;;;;;;27.08;12.15;;;22.60;47.20;;;;;;6127634;28;84588;-75
2021/11/30 07:51:15;;;;;;;20.33;10.25;;;22.60;47.00;;;;;;6126170;28;84059;-74
2021/11/30 07:54:16;;;;;;;22.30;10.43;;;22.60;47.20;;;;;;6145389;28;86030;-75
2021/11/30 07:57:17;;;;;;;18.20;9.43;;;22.60;47.20;;;;;;6131625;28;83394;-72
2021/11/30 08:00:17;;;;;;;22.08;9.07;;;22.50;48.00;;;;;;6132162;28;83550;-73
2021/11/30 08:03:18;;;;;;;16.23;7.95;;;22.40;48.90;;;;;;6131955;28;80332;-74
2021/11/30 08:06:18;;;;;;;15.20;7.72;;;22.40;49.30;;;;;;6126510;28;80360;-73
2021/11/30 08:09:19;;;;;;;24.42;9.18;;;22.40;50.00;;;;;;6134703;28;80366;-73
2021/11/30 08:12:19;;;;;;;33.70;10.10;;;22.40;50.30;;;;;;6133661;28;80881;-76
2021/11/30 08:15:20;;;;;;;26.55;9.18;;;22.40;51.20;;;;;;6124124;28;82776;-76
2021/11/30 08:18:20;;;;;;;27.45;9.90;;;22.40;52.00;;;;;;6133839;28;82720;-68
2021/11/30 08:21:21;;;;;;;24.90;9.70;;;22.40;52.80;;;;;;6125712;28;80496;-72
2021/11/30 08:24:21;;;;;;;23.10;9.45;;;22.40;53.80;;;;;;6132817;28;81542;-72
2021/11/30 08:27:22;;;;;;;22.20;8.68;;;22.40;54.10;;;;;;6148367;28;81505;-74
2021/11/30 08:30:22;;;;;;;18.70;7.47;;;22.40;55.40;;;;;;6146257;28;81315;-74
2021/11/30 08:33:23;;;;;;;16.23;7.28;;;22.50;56.10;;;;;;6133161;28;80327;-72
2021/11/30 08:36:23;;;;;;;19.92;6.90;;;22.50;57.60;;;;;;6137162;28;80580;-73
2021/11/30 08:39:24;;;;;;;15.55;6.68;;;22.50;57.90;;;;;;6126910;28;80516;-73
2021/11/30 08:42:24;;;;;;;11.40;6.45;;;22.50;58.80;;;;;;6129398;28;80594;-73
2021/11/30 08:45:25;;;;;;;14.07;5.70;;;22.60;58.50;;;;;;6130530;28;81809;-74
2021/11/30 08:48:26;;;;;;;10.70;4.53;;;22.50;58.30;;;;;;6127692;28;81361;-72
2021/11/30 08:51:26;;;;;;;9.93;5.40;;;22.60;58.10;;;;;;6126173;28;80491;-70
2021/11/30 08:54:27;;;;;;;10.65;5.35;;;22.60;58.60;;;;;;6142030;28;82236;-74
2021/11/30 08:57:28;;;;;;;11.43;5.57;;;22.60;59.50;;;;;;6136132;28;81347;-75
2021/11/30 09:00:30;;;;;;;13.68;6.60;;;22.70;59.50;;;;;;6132675;28;82668;-72
2021/11/30 09:03:30;;;;;;;8.48;4.80;;;22.70;58.40;;;;;;6129160;28;80987;-71
2021/11/30 09:06:31;;;;;;;8.10;4.20;;;22.70;57.00;;;;;;6137521;28;80848;-73
2021/11/30 09:09:31;;;;;;;7.25;3.85;;;22.70;56.00;;;;;;6148950;28;81398;-72
2021/11/30 09:12:32;;;;;;;11.20;4.53;;;22.70;54.90;;;;;;6137047;28;81497;-73
2021/11/30 09:15:33;;;;;;;7.07;3.92;;;22.70;54.70;;;;;;6135666;28;81287;-74
2021/11/30 09:18:33;;;;;;;7.30;4.00;;;22.70;54.10;;;;;;6131376;28;80418;-72
2021/11/30 09:21:34;;;;;;;4.80;3.35;;;22.70;53.70;;;;;;6132333;28;82947;-72
2021/11/30 09:24:34;;;;;;;4.68;3.25;;;22.70;52.60;;;;;;6136265;28;82218;-69
2021/11/30 09:27:35;;;;;;;5.90;3.88;;;22.80;52.50;;;;;;6139259;28;81678;-69
2021/11/30 09:30:37;;;;;;;5.32;3.40;;;22.70;51.80;;;;;;6135421;28;83308;-69
2021/11/30 09:33:40;;;;;;;4.25;3.10;;;22.70;51.60;;;;;;6138941;28;80447;-70
2021/11/30 09:36:43;;;;;;;4.53;3.10;;;22.70;51.10;;;;;;6135808;28;80635;-70
2021/11/30 09:39:44;;;;;;;5.07;3.50;;;22.70;50.70;;;;;;6137107;28;81462;-70
2021/11/30 09:42:44;;;;;;;5.45;2.78;;;22.70;50.60;;;;;;6128434;28;80455;-71
2021/11/30 09:45:45;;;;;;;6.38;3.05;;;22.70;50.30;;;;;;6134125;28;82118;-72
2021/11/30 09:48:46;;;;;;;4.57;3.15;;;22.70;49.80;;;;;;6135783;28;80405;-71
2021/11/30 09:51:46;;;;;;;4.30;3.20;;;22.70;49.60;;;;;;6132433;28;80808;-73
2021/11/30 09:54:47;;;;;;;4.32;2.67;;;22.80;49.40;;;;;;6135080;28;80594;-70
2021/11/30 09:57:48;;;;;;;6.82;2.58;;;22.70;48.90;;;;;;6134140;28;80423;-72
2021/11/30 10:00:48;;;;;;;4.20;2.58;;;22.80;48.80;;;;;;6134156;28;81765;-72
2021/11/30 10:03:49;;;;;;;4.60;2.70;;;22.80;48.60;;;;;;6139930;28;80492;-72
2021/11/30 10:06:49;;;;;;;5.15;2.15;;;22.80;48.30;;;;;;6138216;28;80436;-70
2021/11/30 10:09:50;;;;;;;4.35;2.05;;;22.80;48.00;;;;;;6143338;28;80379;-68
2021/11/30 10:12:50;;;;;;;2.58;2.10;;;22.80;47.90;;;;;;6139116;28;81871;-73
2021/11/30 10:15:51;;;;;;;3.38;2.53;;;22.90;47.60;;;;;;6140901;28;81294;-68
2021/11/30 10:18:51;;;;;;;3.45;2.30;;;22.90;46.90;;;;;;6136140;28;80812;-73
2021/11/30 10:21:52;;;;;;;3.47;2.72;;;23.00;46.60;;;;;;6131208;28;81927;-71
2021/11/30 10:24:52;;;;;;;3.53;2.47;;;23.00;46.50;;;;;;6133245;28;80972;-72
2021/11/30 10:27:53;;;;;;;3.05;2.17;;;23.10;46.00;;;;;;6130149;28;80580;-71
2021/11/30 10:30:54;;;;;;;3.58;2.28;;;23.10;46.10;;;;;;6150488;28;80419;-71
2021/11/30 10:33:55;;;;;;;4.32;2.13;;;23.10;45.30;;;;;;6141045;28;80511;-70
2021/11/30 10:36:56;;;;;;;4.82;2.13;;;23.10;45.00;;;;;;6137522;28;80731;-70
2021/11/30 10:39:57;;;;;;;3.90;2.25;;;23.10;45.10;;;;;;6131201;28;80432;-70
2021/11/30 10:42:57;;;;;;;2.85;2.08;;;23.10;44.90;;;;;;6136382;28;83129;-71
2021/11/30 10:45:58;;;;;;;2.63;1.90;;;23.10;44.90;;;;;;6140202;28;80769;-71
2021/11/30 10:48:58;;;;;;;2.45;1.50;;;23.10;44.90;;;;;;6144956;28;81374;-70
2021/11/30 10:51:59;;;;;;;3.53;2.20;;;23.10;44.60;;;;;;6139592;28;82008;-71
2021/11/30 10:54:59;;;;;;;3.30;1.83;;;23.10;44.20;;;;;;6147442;28;80599;-72
2021/11/30 10:58:00;;;;;;;2.67;1.92;;;23.00;44.10;;;;;;6127277;28;80432;-74
2021/11/30 11:01:01;;;;;;;2.22;1.83;;;23.00;44.60;;;;;;6128222;28;81638;-72
2021/11/30 11:04:02;;;;;;;2.90;1.90;;;23.10;43.50;;;;;;6130571;28;80384;-70
2021/11/30 11:07:02;;;;;;;1.85;1.75;;;23.00;43.20;;;;;;6137969;28;81585;-72
2021/11/30 11:10:03;;;;;;;5.28;1.67;;;23.00;42.80;;;;;;6136894;28;80310;-74
2021/11/30 11:13:03;;;;;;;4.65;1.70;;;23.10;42.80;;;;;;6132264;28;80377;-75
2021/11/30 11:16:04;;;;;;;3.20;2.28;;;23.20;42.70;;;;;;6124818;28;80853;-77
2021/11/30 11:19:04;;;;;;;12.23;4.65;;;23.40;41.40;;;;;;6142012;28;80588;-72
2021/11/30 11:22:05;;;;;;;11.88;3.80;;;23.30;42.80;;;;;;6136197;28;81213;-74
2021/11/30 11:25:06;;;;;;;10.82;3.60;;;23.30;42.60;;;;;;6134621;28;81189;-71
2021/11/30 11:28:07;;;;;;;12.38;2.95;;;23.20;42.70;;;;;;6153107;28;81609;-73
2021/11/30 11:31:07;;;;;;;8.70;2.85;;;23.20;43.40;;;;;;6149050;28;80474;-73
2021/11/30 11:34:08;;;;;;;6.82;2.83;;;23.10;43.70;;;;;;6132042;28;80872;-73
2021/11/30 11:37:12;;;;;;;7.75;2.90;;;23.10;43.30;;;;;;6133949;28;82605;-73
2021/11/30 11:40:12;;;;;;;4.65;2.33;;;23.10;43.80;;;;;;6133482;28;81655;-71
2021/11/30 11:43:13;;;;;;;7.05;2.83;;;23.10;43.60;;;;;;6140830;28;80280;-72
2021/11/30 11:46:13;;;;;;;7.03;2.60;;;23.10;43.50;;;;;;6136039;28;80481;-71
2021/11/30 11:49:14;;;;;;;7.45;2.60;;;23.10;43.70;;;;;;6134461;28;80443;-72
2021/11/30 11:52:14;;;;;;;8.88;3.00;;;23.00;43.70;;;;;;6137262;28;80244;-72
2021/11/30 11:55:15;;;;;;;10.40;3.35;;;23.00;43.80;;;;;;6133709;28;81037;-66
2021/11/30 11:58:16;;;;;;;4.40;2.28;;;23.00;43.50;;;;;;6137686;28;80253;-73
2021/11/30 12:01:16;;;;;;;3.85;2.45;;;23.00;43.30;;;;;;6134172;28;81436;-70
2021/11/30 12:04:17;;;;;;;3.80;2.13;;;23.00;43.80;;;;;;6133265;28;80516;-68
2021/11/30 12:07:17;;;;;;;6.55;2.03;;;23.00;43.80;;;;;;6134828;28;80715;-74
2021/11/30 12:10:18;;;;;;;6.25;1.92;;;22.90;43.60;;;;;;6128788;28;80844;-70
2021/11/30 12:13:19;;;;;;;6.43;2.53;;;22.90;43.40;;;;;;6135468;28;81034;-70
2021/11/30 12:16:20;;;;;;;10.43;2.25;;;22.90;43.60;;;;;;6131659;28;80931;-70
2021/11/30 12:19:20;;;;;;;4.35;2.22;;;22.90;43.30;;;;;;6130181;28;80971;-73
2021/11/30 12:22:21;;;;;;;2.63;1.88;;;22.90;43.80;;;;;;6126645;28;80873;-74
2021/11/30 12:25:21;;;;;;;4.28;1.92;;;22.90;44.00;;;;;;6134529;28;80238;-70
2021/11/30 12:28:22;;;;;;;3.45;1.70;;;22.90;44.50;;;;;;6136121;28;80814;-70
2021/11/30 12:31:22;;;;;;;4.15;1.95;;;22.90;43.60;;;;;;6123072;28;81157;-69
2021/11/30 12:34:23;;;;;;;3.05;1.70;;;23.00;43.70;;;;;;6134548;28;83198;-69
2021/11/30 12:37:23;;;;;;;3.08;1.70;;;22.90;43.10;;;;;;6133395;28;80680;-69
2021/11/30 12:40:24;;;;;;;4.13;2.05;;;22.90;43.00;;;;;;6133429;28;81180;-69
2021/11/30 12:43:25;;;;;;;2.83;1.92;;;22.90;43.10;;;;;;6134360;28;80382;-69
2021/11/30 12:46:25;;;;;;;4.13;1.90;;;22.80;42.10;;;;;;6126598;28;80577;-70
2021/11/30 12:49:28;;;;;;;2.97;1.90;;;22.80;42.70;;;;;;6132315;28;82546;-69
2021/11/30 12:52:30;;;;;;;3.10;2.08;;;22.80;42.20;;;;;;6133425;28;80927;-69
2021/11/30 12:55:30;;;;;;;3.50;1.90;;;22.80;42.00;;;;;;6134381;28;80431;-70
2021/11/30 12:58:31;;;;;;;2.45;1.80;;;22.80;42.40;;;;;;6133738;28;81156;-69
2021/11/30 13:01:31;;;;;;;2.88;1.70;;;22.70;41.90;;;;;;6130815;28;82371;-70
2021/11/30 13:04:32;;;;;;;2.85;1.70;;;22.80;42.40;;;;;;6141362;28;80942;-70
2021/11/30 13:07:33;;;;;;;2.95;1.80;;;22.80;42.30;;;;;;6138581;28;80268;-70
2021/11/30 13:10:34;;;;;;;3.25;1.63;;;22.80;42.00;;;;;;6136753;28;80869;-71
2021/11/30 13:13:38;;;;;;;2.78;1.60;;;22.80;41.70;;;;;;6130956;28;80183;-71
2021/11/30 13:16:38;;;;;;;2.00;1.77;;;22.80;41.40;;;;;;6133642;28;80880;-72
2021/11/30 13:19:39;;;;;;;3.10;1.98;;;22.80;41.70;;;;;;6120808;28;82339;-72
2021/11/30 13:22:40;;;;;;;2.60;1.83;;;22.70;41.50;;;;;;6128234;28;81838;-72
2021/11/30 13:25:40;;;;;;;2.67;1.55;;;22.70;42.10;;;;;;6124318;28;80829;-72
2021/11/30 13:28:41;;;;;;;2.72;1.77;;;22.70;41.50;;;;;;6126458;28;82391;-73
2021/11/30 13:31:42;;;;;;;1.60;1.40;;;22.70;41.40;;;;;;6135855;28;80556;-70
2021/11/30 13:34:42;;;;;;;2.35;1.85;;;22.70;42.30;;;;;;6134644;28;80470;-70
2021/11/30 13:37:45;;;;;;;2.63;1.70;;;22.70;42.10;;;;;;6135687;28;81070;-70
2021/11/30 13:40:45;;;;;;;2.22;1.50;;;22.60;41.90;;;;;;6135678;28;80876;-72
2021/11/30 13:43:46;;;;;;;2.67;1.58;;;22.60;41.80;;;;;;6139701;28;80488;-70
2021/11/30 13:46:47;;;;;;;1.88;1.52;;;22.60;41.40;;;;;;6135404;28;80711;-70
2021/11/30 13:49:47;;;;;;;2.70;1.80;;;22.50;41.80;;;;;;6140583;28;87659;-70
2021/11/30 13:52:48;;;;;;;1.88;1.67;;;22.60;42.20;;;;;;6140861;28;80932;-70
2021/11/30 13:56:00;;;;;;;4.32;1.67;;;22.60;41.60;;;;;;6137474;28;81801;-69
2021/11/30 13:59:36;;;;;;;2.85;1.67;;;22.60;41.60;;;;;;6144788;28;85150;-71
2021/11/30 14:02:42;;;;;;;3.65;1.50;;;22.50;41.80;;;;;;6139294;28;80668;-71
2021/11/30 14:05:43;;;;;;;3.22;1.80;;;22.50;41.80;;;;;;6140305;28;80548;-70
2021/11/30 14:08:43;;;;;;;2.40;1.60;;;22.50;42.20;;;;;;6138874;28;83420;-70
2021/11/30 14:11:44;;;;;;;2.28;1.75;;;22.50;41.40;;;;;;6141815;28;80389;-71
2021/11/30 14:14:44;;;;;;;1.67;1.50;;;22.50;41.70;;;;;;6155491;28;80595;-71
2021/11/30 14:17:47;;;;;;;2.72;1.50;;;22.50;41.70;;;;;;6157440;28;80592;-71
2021/11/30 14:20:48;;;;;;;3.33;1.80;;;22.50;41.90;;;;;;6140568;28;80649;-70
2021/11/30 14:23:48;;;;;;;1.70;1.23;;;22.40;41.80;;;;;;6135898;28;80633;-70
2021/11/30 14:26:49;;;;;;;1.83;1.50;;;22.50;41.70;;;;;;6134476;28;80413;-71
2021/11/30 14:29:49;;;;;;;1.85;1.52;;;22.50;41.40;;;;;;6123658;28;80717;-70
2021/11/30 14:32:50;;;;;;;2.00;1.70;;;22.50;41.60;;;;;;6145023;28;80265;-70
2021/11/30 14:35:50;;;;;;;2.75;1.70;;;22.50;41.60;;;;;;6137793;28;81064;-70
2021/11/30 14:38:51;;;;;;;1.77;1.27;;;22.50;41.30;;;;;;6143516;28;80456;-70
2021/11/30 14:41:52;;;;;;;2.78;1.73;;;22.40;41.10;;;;;;6136428;28;80510;-70
2021/11/30 14:44:52;;;;;;;1.58;1.38;;;22.40;41.30;;;;;;6126192;28;81809;-70
2021/11/30 14:47:53;;;;;;;2.15;1.58;;;22.40;41.70;;;;;;6132561;28;81484;-71
2021/11/30 14:50:53;;;;;;;2.00;1.80;;;22.40;41.80;;;;;;6130748;28;81430;-71
2021/11/30 14:53:54;;;;;;;2.92;1.98;;;22.40;42.30;;;;;;6136916;28;80529;-72
2021/11/30 14:56:56;;;;;;;2.35;1.67;;;22.50;42.20;;;;;;6138241;28;80998;-71
2021/11/30 14:59:57;;;;;;;6.30;2.10;;;22.50;42.40;;;;;;6132742;28;80392;-71
2021/11/30 15:02:57;;;;;;;2.95;1.88;;;22.50;42.20;;;;;;6132445;28;81281;-71
2021/11/30 15:05:59;;;;;;;2.88;1.88;;;22.50;42.00;;;;;;6130004;28;80482;-71
2021/11/30 15:08:59;;;;;;;5.53;1.95;;;22.50;42.50;;;;;;6130465;28;81878;-71
2021/11/30 15:12:00;;;;;;;2.35;1.63;;;22.50;42.50;;;;;;6130899;28;80254;-70
2021/11/30 15:15:00;;;;;;;2.20;1.77;;;22.50;41.80;;;;;;6132270;28;80803;-69
2021/11/30 15:18:01;;;;;;;6.43;1.67;;;22.50;42.50;;;;;;6129185;28;81780;-70
2021/11/30 15:21:02;;;;;;;2.20;1.60;;;22.50;42.20;;;;;;6141354;28;80982;-67
2021/11/30 15:24:02;;;;;;;1.35;1.25;;;22.50;42.10;;;;;;6135883;28;80493;-71
2021/11/30 15:27:03;;;;;;;5.97;1.45;;;22.50;42.20;;;;;;6136309;28;82153;-72
2021/11/30 15:30:03;;;;;;;2.05;1.48;;;22.50;42.30;;;;;;6134494;28;80311;-75
2021/11/30 15:33:04;;;;;;;2.00;1.33;;;22.50;42.40;;;;;;6136074;28;80637;-76
2021/11/30 15:36:04;;;;;;;2.35;1.38;;;22.50;42.20;;;;;;6129597;28;81509;-74
2021/11/30 15:39:05;;;;;;;2.28;1.70;;;22.50;42.50;;;;;;6132007;28;80437;-73
2021/11/30 15:42:06;;;;;;;3.17;1.92;;;22.50;43.00;;;;;;6137207;28;82323;-78